sensor_id;sensor_type;location;lat;lon;timestamp;pressure;altitude;pressure_sealevel;temperature;humidity
76352;BME280;65179;47.786;19.138;2024-02-26T00:01:25;99567.88;;;8.97;100.00
76352;BME280;65179;47.786;19.138;2024-02-26T00:03:51;99571.66;;;8.96;100.00
76352;BME280;65179;47.786;19.138;2024-02-26T00:06:17;99561.66;;;8.96;100.00
76352;BME280;65179;47.786;19.138;2024-02-26T00:08:44;99563.28;;;8.97;100.00
76352;BME280;65179;47.786;19.138;2024-02-26T00:11:09;99560.59;;;8.97;100.00
76352;BME280;65179;47.786;19.138;2024-02-26T00:13:35;99565.84;;;8.92;100.00
76352;BME280;65179;47.786;19.138;2024-02-26T00:16:01;99558.31;;;8.94;100.00
76352;BME280;65179;47.786;19.138;2024-02-26T00:18:27;99562.47;;;8.97;100.00
76352;BME280;65179;47.786;19.138;2024-02-26T00:20:52;99561.03;;;8.94;100.00
76352;BME280;65179;47.786;19.138;2024-02-26T00:23:18;99565.16;;;8.97;100.00
76352;BME280;65179;47.786;19.138;2024-02-26T00:25:43;99556.00;;;8.98;100.00
76352;BME280;65179;47.786;19.138;2024-02-26T00:28:10;99552.00;;;9.00;100.00
76352;BME280;65179;47.786;19.138;2024-02-26T00:30:35;99550.59;;;8.98;100.00
76352;BME280;65179;47.786;19.138;2024-02-26T00:33:01;99540.34;;;9.00;100.00
76352;BME280;65179;47.786;19.138;2024-02-26T00:35:26;99540.81;;;8.97;100.00
76352;BME280;65179;47.786;19.138;2024-02-26T00:37:52;99533.50;;;8.97;100.00
76352;BME280;65179;47.786;19.138;2024-02-26T00:40:17;99532.47;;;8.98;100.00
76352;BME280;65179;47.786;19.138;2024-02-26T00:42:43;99536.66;;;8.94;100.00
76352;BME280;65179;47.786;19.138;2024-02-26T00:45:11;99539.16;;;8.96;100.00
76352;BME280;65179;47.786;19.138;2024-02-26T00:47:37;99540.81;;;8.97;100.00
76352;BME280;65179;47.786;19.138;2024-02-26T00:50:03;99542.09;;;8.94;100.00
76352;BME280;65179;47.786;19.138;2024-02-26T00:52:28;99548.34;;;8.95;100.00
76352;BME280;65179;47.786;19.138;2024-02-26T00:54:54;99542.72;;;8.96;100.00
76352;BME280;65179;47.786;19.138;2024-02-26T00:57:19;99547.06;;;8.97;100.00
76352;BME280;65179;47.786;19.138;2024-02-26T00:59:45;99536.66;;;8.94;100.00
76352;BME280;65179;47.786;19.138;2024-02-26T01:02:10;99539.38;;;8.94;100.00
76352;BME280;65179;47.786;19.138;2024-02-26T01:04:36;99538.34;;;8.95;100.00
76352;BME280;65179;47.786;19.138;2024-02-26T01:07:02;99540.91;;;8.90;100.00
76352;BME280;65179;47.786;19.138;2024-02-26T01:09:28;99533.97;;;8.94;100.00
76352;BME280;65179;47.786;19.138;2024-02-26T01:11:53;99533.75;;;8.96;100.00
76352;BME280;65179;47.786;19.138;2024-02-26T01:14:19;99530.22;;;8.95;100.00
76352;BME280;65179;47.786;19.138;2024-02-26T01:16:44;99533.38;;;8.92;100.00
76352;BME280;65179;47.786;19.138;2024-02-26T01:19:10;99522.53;;;8.92;100.00
76352;BME280;65179;47.786;19.138;2024-02-26T01:21:35;99519.22;;;8.90;100.00
76352;BME280;65179;47.786;19.138;2024-02-26T01:24:01;99519.91;;;8.86;100.00
76352;BME280;65179;47.786;19.138;2024-02-26T01:26:26;99521.00;;;8.85;100.00
76352;BME280;65179;47.786;19.138;2024-02-26T01:28:52;99520.75;;;8.86;100.00
76352;BME280;65179;47.786;19.138;2024-02-26T01:31:17;99518.03;;;8.86;100.00
76352;BME280;65179;47.786;19.138;2024-02-26T01:33:43;99517.44;;;8.84;100.00
76352;BME280;65179;47.786;19.138;2024-02-26T01:36:08;99513.69;;;8.85;100.00
76352;BME280;65179;47.786;19.138;2024-02-26T01:38:33;99501.81;;;8.86;100.00
76352;BME280;65179;47.786;19.138;2024-02-26T01:40:59;99503.91;;;8.84;100.00
76352;BME280;65179;47.786;19.138;2024-02-26T01:43:24;99509.34;;;8.84;100.00
76352;BME280;65179;47.786;19.138;2024-02-26T01:45:50;99511.00;;;8.85;100.00
76352;BME280;65179;47.786;19.138;2024-02-26T01:48:15;99514.75;;;8.84;100.00
76352;BME280;65179;47.786;19.138;2024-02-26T01:50:41;99516.16;;;8.87;100.00
76352;BME280;65179;47.786;19.138;2024-02-26T01:53:07;99508.88;;;8.87;100.00
76352;BME280;65179;47.786;19.138;2024-02-26T01:55:34;99514.28;;;8.87;100.00
76352;BME280;65179;47.786;19.138;2024-02-26T01:58:00;99519.72;;;8.87;100.00
76352;BME280;65179;47.786;19.138;2024-02-26T02:00:26;99512.19;;;8.89;100.00
76352;BME280;65179;47.786;19.138;2024-02-26T02:02:51;99525.12;;;8.87;100.00
76352;BME280;65179;47.786;19.138;2024-02-26T02:05:18;99523.00;;;8.89;100.00
76352;BME280;65179;47.786;19.138;2024-02-26T02:07:45;99523.00;;;8.89;100.00
76352;BME280;65179;47.786;19.138;2024-02-26T02:10:13;99519.47;;;8.89;100.00
76352;BME280;65179;47.786;19.138;2024-02-26T02:12:38;99515.13;;;8.88;100.00
76352;BME280;65179;47.786;19.138;2024-02-26T02:15:05;99514.28;;;8.87;100.00
76352;BME280;65179;47.786;19.138;2024-02-26T02:17:31;99508.88;;;8.87;100.00
76352;BME280;65179;47.786;19.138;2024-02-26T02:19:57;99511.59;;;8.87;100.00
76352;BME280;65179;47.786;19.138;2024-02-26T02:22:22;99518.03;;;8.86;100.00
76352;BME280;65179;47.786;19.138;2024-02-26T02:24:49;99512.03;;;8.84;100.00
76352;BME280;65179;47.786;19.138;2024-02-26T02:27:15;99516.41;;;8.85;100.00
76352;BME280;65179;47.786;19.138;2024-02-26T02:29:41;99518.03;;;8.86;100.00
76352;BME280;65179;47.786;19.138;2024-02-26T02:32:07;99519.31;;;8.84;100.00
76352;BME280;65179;47.786;19.138;2024-02-26T02:34:33;99516.41;;;8.85;100.00
76352;BME280;65179;47.786;19.138;2024-02-26T02:36:59;99516.41;;;8.85;100.00
76352;BME280;65179;47.786;19.138;2024-02-26T02:39:24;99517.22;;;8.86;100.00
76352;BME280;65179;47.786;19.138;2024-02-26T02:41:50;99517.84;;;8.88;100.00
76352;BME280;65179;47.786;19.138;2024-02-26T02:44:15;99518.03;;;8.86;100.00
76352;BME280;65179;47.786;19.138;2024-02-26T02:46:41;99521.34;;;8.88;100.00
76352;BME280;65179;47.786;19.138;2024-02-26T02:49:10;99516.75;;;8.89;100.00
76352;BME280;65179;47.786;19.138;2024-02-26T02:51:36;99511.59;;;8.87;100.00
76352;BME280;65179;47.786;19.138;2024-02-26T02:54:02;99511.78;;;8.86;100.00
76352;BME280;65179;47.786;19.138;2024-02-26T02:56:27;99510.16;;;8.85;100.00
76352;BME280;65179;47.786;19.138;2024-02-26T02:58:53;99502.28;;;8.83;100.00
76352;BME280;65179;47.786;19.138;2024-02-26T03:01:18;99499.56;;;8.83;100.00
76352;BME280;65179;47.786;19.138;2024-02-26T03:03:44;99496.47;;;8.80;100.00
76352;BME280;65179;47.786;19.138;2024-02-26T03:06:09;99497.31;;;8.80;100.00
76352;BME280;65179;47.786;19.138;2024-02-26T03:08:35;99496.28;;;8.81;100.00
76352;BME280;65179;47.786;19.138;2024-02-26T03:11:03;99507.09;;;8.81;100.00
76352;BME280;65179;47.786;19.138;2024-02-26T03:13:29;99500.63;;;8.82;100.00
76352;BME280;65179;47.786;19.138;2024-02-26T03:15:54;99506.03;;;8.82;100.00
76352;BME280;65179;47.786;19.138;2024-02-26T03:18:20;99501.44;;;8.83;100.00
76352;BME280;65179;47.786;19.138;2024-02-26T03:20:45;99502.28;;;8.83;100.00
76352;BME280;65179;47.786;19.138;2024-02-26T03:23:11;99499.78;;;8.82;100.00
76352;BME280;65179;47.786;19.138;2024-02-26T03:25:41;99510.84;;;8.80;100.00
76352;BME280;65179;47.786;19.138;2024-02-26T03:28:06;99507.53;;;8.78;100.00
76352;BME280;65179;47.786;19.138;2024-02-26T03:30:31;99497.31;;;8.80;100.00
76352;BME280;65179;47.786;19.138;2024-02-26T03:32:57;99495.66;;;8.79;100.00
76352;BME280;65179;47.786;19.138;2024-02-26T03:35:22;99500.03;;;8.80;100.00
76352;BME280;65179;47.786;19.138;2024-02-26T03:37:48;99502.12;;;8.78;100.00
76352;BME280;65179;47.786;19.138;2024-02-26T03:40:15;99503.19;;;8.77;100.00
76352;BME280;65179;47.786;19.138;2024-02-26T03:42:41;99502.72;;;8.80;100.00
76352;BME280;65179;47.786;19.138;2024-02-26T03:45:06;99495.88;;;8.78;100.00
76352;BME280;65179;47.786;19.138;2024-02-26T03:47:32;99499.44;;;8.78;100.00
76352;BME280;65179;47.786;19.138;2024-02-26T03:49:57;99495.66;;;8.79;100.00
76352;BME280;65179;47.786;19.138;2024-02-26T03:52:24;99492.59;;;8.76;100.00
76352;BME280;65179;47.786;19.138;2024-02-26T03:54:50;99487.84;;;8.71;100.00
76352;BME280;65179;47.786;19.138;2024-02-26T03:57:15;99479.16;;;8.69;100.00
76352;BME280;65179;47.786;19.138;2024-02-26T03:59:40;99482.94;;;8.68;100.00
76352;BME280;65179;47.786;19.138;2024-02-26T04:02:06;99468.81;;;8.66;100.00
76352;BME280;65179;47.786;19.138;2024-02-26T04:04:34;99488.34;;;8.68;100.00
76352;BME280;65179;47.786;19.138;2024-02-26T04:06:59;99479.97;;;8.70;100.00
76352;BME280;65179;47.786;19.138;2024-02-26T04:09:25;99479.62;;;8.66;100.00
76352;BME280;65179;47.786;19.138;2024-02-26T04:11:50;99474.81;;;8.68;100.00
76352;BME280;65179;47.786;19.138;2024-02-26T04:14:16;99473.59;;;8.64;100.00
76352;BME280;65179;47.786;19.138;2024-02-26T04:16:41;99482.94;;;8.68;100.00
76352;BME280;65179;47.786;19.138;2024-02-26T04:19:07;99487.50;;;8.68;100.00
76352;BME280;65179;47.786;19.138;2024-02-26T04:21:33;99491.25;;;8.67;100.00
76352;BME280;65179;47.786;19.138;2024-02-26T04:23:58;99491.84;;;8.69;100.00
76352;BME280;65179;47.786;19.138;2024-02-26T04:26:27;99488.09;;;8.70;100.00
76352;BME280;65179;47.786;19.138;2024-02-26T04:28:52;99498.94;;;8.70;100.00
76352;BME280;65179;47.786;19.138;2024-02-26T04:31:18;99495.38;;;8.69;100.00
76352;BME280;65179;47.786;19.138;2024-02-26T04:33:44;99492.69;;;8.69;100.00
76352;BME280;65179;47.786;19.138;2024-02-26T04:36:16;99501.62;;;8.70;100.00
76352;BME280;65179;47.786;19.138;2024-02-26T04:38:43;99493.75;;;8.68;100.00
76352;BME280;65179;47.786;19.138;2024-02-26T04:41:08;99504.56;;;8.68;100.00
76352;BME280;65179;47.786;19.138;2024-02-26T04:43:34;99499.16;;;8.68;100.00
76352;BME280;65179;47.786;19.138;2024-02-26T04:45:59;99498.34;;;8.68;100.00
76352;BME280;65179;47.786;19.138;2024-02-26T04:48:25;99491.25;;;8.67;100.00
76352;BME280;65179;47.786;19.138;2024-02-26T04:50:50;99489.97;;;8.69;100.00
76352;BME280;65179;47.786;19.138;2024-02-26T04:53:16;99489.38;;;8.67;100.00
76352;BME280;65179;47.786;19.138;2024-02-26T04:55:41;99485.63;;;8.68;100.00
76352;BME280;65179;47.786;19.138;2024-02-26T04:58:06;99491.03;;;8.68;100.00
76352;BME280;65179;47.786;19.138;2024-02-26T05:00:32;99482.94;;;8.68;100.00
76352;BME280;65179;47.786;19.138;2024-02-26T05:02:57;99474.22;;;8.66;100.00
76352;BME280;65179;47.786;19.138;2024-02-26T05:05:22;99471.50;;;8.66;100.00
76352;BME280;65179;47.786;19.138;2024-02-26T05:07:48;99471.94;;;8.63;100.00
76352;BME280;65179;47.786;19.138;2024-02-26T05:10:13;99470.75;;;8.59;100.00
76352;BME280;65179;47.786;19.138;2024-02-26T05:12:39;99475.09;;;8.60;100.00
76352;BME280;65179;47.786;19.138;2024-02-26T05:15:06;99482.19;;;8.61;100.00
76352;BME280;65179;47.786;19.138;2024-02-26T05:17:31;99475.09;;;8.60;100.00
76352;BME280;65179;47.786;19.138;2024-02-26T05:19:57;99474.66;;;8.63;100.00
76352;BME280;65179;47.786;19.138;2024-02-26T05:22:22;99467.97;;;8.66;100.00
76352;BME280;65179;47.786;19.138;2024-02-26T05:24:48;99472.53;;;8.65;100.00
76352;BME280;65179;47.786;19.138;2024-02-26T05:27:13;99471.72;;;8.65;100.00
76352;BME280;65179;47.786;19.138;2024-02-26T05:29:38;99475.84;;;8.67;100.00
76352;BME280;65179;47.786;19.138;2024-02-26T05:32:05;99467.72;;;8.67;100.00
76352;BME280;65179;47.786;19.138;2024-02-26T05:34:31;99488.34;;;8.68;100.00
76352;BME280;65179;47.786;19.138;2024-02-26T05:36:57;99480.22;;;8.68;100.00
76352;BME280;65179;47.786;19.138;2024-02-26T05:39:23;99474.81;;;8.68;100.00
76352;BME280;65179;47.786;19.138;2024-02-26T05:41:48;99474.56;;;8.70;100.00
76352;BME280;65179;47.786;19.138;2024-02-26T05:44:14;99479.16;;;8.69;100.00
76352;BME280;65179;47.786;19.138;2024-02-26T05:46:41;99477.50;;;8.68;100.00
76352;BME280;65179;47.786;19.138;2024-02-26T05:49:07;99473.72;;;8.69;100.00
76352;BME280;65179;47.786;19.138;2024-02-26T05:51:32;99477.50;;;8.68;100.00
76352;BME280;65179;47.786;19.138;2024-02-26T05:53:58;99475.84;;;8.67;100.00
76352;BME280;65179;47.786;19.138;2024-02-26T05:56:23;99482.44;;;8.71;100.00
76352;BME280;65179;47.786;19.138;2024-02-26T05:58:49;99482.44;;;8.71;100.00
76352;BME280;65179;47.786;19.138;2024-02-26T06:01:17;99491.16;;;8.73;100.00
76352;BME280;65179;47.786;19.138;2024-02-26T06:03:44;99489.03;;;8.75;100.00
76352;BME280;65179;47.786;19.138;2024-02-26T06:06:10;99486.47;;;8.80;100.00
76352;BME280;65179;47.786;19.138;2024-02-26T06:08:36;99483.34;;;8.83;100.00
76352;BME280;65179;47.786;19.138;2024-02-26T06:11:06;99478.50;;;8.85;100.00
76352;BME280;65179;47.786;19.138;2024-02-26T06:13:32;99472.59;;;8.88;100.00
76352;BME280;65179;47.786;19.138;2024-02-26T06:15:57;99477.56;;;8.91;100.00
76352;BME280;65179;47.786;19.138;2024-02-26T06:18:23;99480.63;;;8.95;100.00
76352;BME280;65179;47.786;19.138;2024-02-26T06:20:48;99484.53;;;8.99;100.00
76352;BME280;65179;47.786;19.138;2024-02-26T06:23:13;99479.50;;;9.02;100.00
76352;BME280;65179;47.786;19.138;2024-02-26T06:25:39;99480.22;;;9.09;100.00
76352;BME280;65179;47.786;19.138;2024-02-26T06:28:05;99477.16;;;9.18;100.00
76352;BME280;65179;47.786;19.138;2024-02-26T06:30:30;99483.53;;;9.23;100.00
76352;BME280;65179;47.786;19.138;2024-02-26T06:32:55;99494.50;;;9.28;100.00
76352;BME280;65179;47.786;19.138;2024-02-26T06:35:21;99499.66;;;9.30;100.00
76352;BME280;65179;47.786;19.138;2024-02-26T06:37:46;99502.38;;;9.30;100.00
76352;BME280;65179;47.786;19.138;2024-02-26T06:40:12;99498.63;;;9.31;100.00
76352;BME280;65179;47.786;19.138;2024-02-26T06:42:38;99495.66;;;9.32;100.00
76352;BME280;65179;47.786;19.138;2024-02-26T06:45:04;99505.69;;;9.32;100.00
76352;BME280;65179;47.786;19.138;2024-02-26T06:47:30;99509.81;;;9.34;100.00
76352;BME280;65179;47.786;19.138;2024-02-26T06:49:55;99510.63;;;9.35;100.00
76352;BME280;65179;47.786;19.138;2024-02-26T06:52:23;99514.41;;;9.34;100.00
76352;BME280;65179;47.786;19.138;2024-02-26T06:54:50;99514.19;;;9.35;100.00
76352;BME280;65179;47.786;19.138;2024-02-26T06:57:16;99511.47;;;9.35;100.00
76352;BME280;65179;47.786;19.138;2024-02-26T06:59:41;99506.84;;;9.36;100.00
76352;BME280;65179;47.786;19.138;2024-02-26T07:02:11;99499.31;;;9.38;100.00
76352;BME280;65179;47.786;19.138;2024-02-26T07:04:36;99508.06;;;9.40;100.00
76352;BME280;65179;47.786;19.138;2024-02-26T07:07:02;99506.41;;;9.39;100.00
76352;BME280;65179;47.786;19.138;2024-02-26T07:09:27;99506.16;;;9.40;100.00
76352;BME280;65179;47.786;19.138;2024-02-26T07:11:53;99511.81;;;9.39;100.00
76352;BME280;65179;47.786;19.138;2024-02-26T07:14:18;99506.41;;;9.39;100.00
76352;BME280;65179;47.786;19.138;2024-02-26T07:16:44;99504.28;;;9.41;100.00
76352;BME280;65179;47.786;19.138;2024-02-26T07:19:10;99505.13;;;9.41;100.00
76352;BME280;65179;47.786;19.138;2024-02-26T07:21:35;99507.59;;;9.43;100.00
76352;BME280;65179;47.786;19.138;2024-02-26T07:24:01;99514.66;;;9.44;100.00
76352;BME280;65179;47.786;19.138;2024-02-26T07:26:27;99512.53;;;9.46;100.00
76352;BME280;65179;47.786;19.138;2024-02-26T07:28:55;99511.47;;;9.47;100.00
76352;BME280;65179;47.786;19.138;2024-02-26T07:31:21;99522.91;;;9.49;100.00
76352;BME280;65179;47.786;19.138;2024-02-26T07:33:46;99521.03;;;9.49;100.00
76352;BME280;65179;47.786;19.138;2024-02-26T07:36:12;99518.69;;;9.53;100.00
76352;BME280;65179;47.786;19.138;2024-02-26T07:38:37;99512.78;;;9.56;100.00
76352;BME280;65179;47.786;19.138;2024-02-26T07:41:03;99516.66;;;9.60;100.00
76352;BME280;65179;47.786;19.138;2024-02-26T07:43:29;99511.84;;;9.62;100.00
76352;BME280;65179;47.786;19.138;2024-02-26T07:45:54;99507.59;;;9.66;100.00
76352;BME280;65179;47.786;19.138;2024-02-26T07:48:20;99514.44;;;9.68;100.00
76352;BME280;65179;47.786;19.138;2024-02-26T07:50:46;99513.37;;;9.69;100.00
76352;BME280;65179;47.786;19.138;2024-02-26T07:53:13;99505.37;;;9.74;100.00
76352;BME280;65179;47.786;19.138;2024-02-26T07:55:38;99511.59;;;9.75;100.00
76352;BME280;65179;47.786;19.138;2024-02-26T07:58:04;99514.91;;;9.77;100.00
76352;BME280;65179;47.786;19.138;2024-02-26T08:00:29;99524.69;;;9.78;100.00
76352;BME280;65179;47.786;19.138;2024-02-26T08:02:55;99518.81;;;9.81;100.00
76352;BME280;65179;47.786;19.138;2024-02-26T08:05:20;99521.03;;;9.84;100.00
76352;BME280;65179;47.786;19.138;2024-02-26T08:07:46;99534.72;;;9.89;100.00
76352;BME280;65179;47.786;19.138;2024-02-26T08:10:11;99531.75;;;9.90;100.00
76352;BME280;65179;47.786;19.138;2024-02-26T08:12:37;99547.19;;;9.90;100.00
76352;BME280;65179;47.786;19.138;2024-02-26T08:15:02;99548.03;;;9.90;100.00
76352;BME280;65179;47.786;19.138;2024-02-26T08:17:28;99543.44;;;9.91;100.00
76352;BME280;65179;47.786;19.138;2024-02-26T08:19:53;99552.63;;;9.90;100.00
76352;BME280;65179;47.786;19.138;2024-02-26T08:22:19;99553.00;;;9.93;100.00
76352;BME280;65179;47.786;19.138;2024-02-26T08:24:45;99548.38;;;9.94;100.00
76352;BME280;65179;47.786;19.138;2024-02-26T08:27:10;99549.59;;;9.98;100.00
76352;BME280;65179;47.786;19.138;2024-02-26T08:29:36;99550.75;;;10.02;100.00
76352;BME280;65179;47.786;19.138;2024-02-26T08:32:02;99544.50;;;10.02;100.00
76352;BME280;65179;47.786;19.138;2024-02-26T08:34:27;99548.63;;;10.04;100.00
76352;BME280;65179;47.786;19.138;2024-02-26T08:36:53;99549.69;;;10.03;100.00
76352;BME280;65179;47.786;19.138;2024-02-26T08:39:18;99548.50;;;9.99;100.00
76352;BME280;65179;47.786;19.138;2024-02-26T08:41:44;99540.72;;;10.03;100.00
76352;BME280;65179;47.786;19.138;2024-02-26T08:44:10;99541.06;;;10.06;100.00
76352;BME280;65179;47.786;19.138;2024-02-26T08:46:36;99542.25;;;10.10;100.00
76352;BME280;65179;47.786;19.138;2024-02-26T08:49:01;99541.09;;;10.18;100.00
76352;BME280;65179;47.786;19.138;2024-02-26T08:51:27;99547.47;;;10.23;100.00
76352;BME280;65179;47.786;19.138;2024-02-26T08:53:52;99543.56;;;10.31;100.00
76352;BME280;65179;47.786;19.138;2024-02-26T08:56:19;99543.91;;;10.34;100.00
76352;BME280;65179;47.786;19.138;2024-02-26T08:58:46;99537.97;;;10.37;100.00
76352;BME280;65179;47.786;19.138;2024-02-26T09:01:14;99535.50;;;10.36;100.00
76352;BME280;65179;47.786;19.138;2024-02-26T09:03:40;99543.41;;;10.37;100.00
76352;BME280;65179;47.786;19.138;2024-02-26T09:06:05;99541.78;;;10.36;100.00
76352;BME280;65179;47.786;19.138;2024-02-26T09:08:32;99545.06;;;10.38;100.00
76352;BME280;65179;47.786;19.138;2024-02-26T09:10:58;99548.84;;;10.37;100.00
76352;BME280;65179;47.786;19.138;2024-02-26T09:13:23;99552.88;;;10.35;100.00
76352;BME280;65179;47.786;19.138;2024-02-26T09:15:48;99554.25;;;10.37;100.00
76352;BME280;65179;47.786;19.138;2024-02-26T09:18:14;99551.66;;;10.42;100.00
76352;BME280;65179;47.786;19.138;2024-02-26T09:20:40;99553.78;;;10.40;100.00
76352;BME280;65179;47.786;19.138;2024-02-26T09:23:06;99557.09;;;10.42;100.00
76352;BME280;65179;47.786;19.138;2024-02-26T09:25:31;99554.97;;;10.44;100.00
76352;BME280;65179;47.786;19.138;2024-02-26T09:27:59;99550.47;;;10.50;100.00
76352;BME280;65179;47.786;19.138;2024-02-26T09:30:24;99565.47;;;10.52;100.00
76352;BME280;65179;47.786;19.138;2024-02-26T09:32:50;99562.75;;;10.52;100.00
76352;BME280;65179;47.786;19.138;2024-02-26T09:35:15;99559.87;;;10.59;100.00
76352;BME280;65179;47.786;19.138;2024-02-26T09:37:41;99565.78;;;10.68;100.00
76352;BME280;65179;47.786;19.138;2024-02-26T09:40:09;99558.22;;;10.70;100.00
76352;BME280;65179;47.786;19.138;2024-02-26T09:42:37;99561.16;;;10.68;100.00
76352;BME280;65179;47.786;19.138;2024-02-26T09:45:07;99565.66;;;10.74;100.00
76352;BME280;65179;47.786;19.138;2024-02-26T09:47:36;99570.25;;;10.74;100.00
76352;BME280;65179;47.786;19.138;2024-02-26T09:50:01;99567.03;;;10.77;100.00
76352;BME280;65179;47.786;19.138;2024-02-26T09:52:28;99578.00;;;10.82;100.00
76352;BME280;65179;47.786;19.138;2024-02-26T09:54:56;99573.72;;;10.86;100.00
76352;BME280;65179;47.786;19.138;2024-02-26T09:57:21;99577.97;;;10.93;100.00
76352;BME280;65179;47.786;19.138;2024-02-26T09:59:51;99571.81;;;10.98;100.00
76352;BME280;65179;47.786;19.138;2024-02-26T10:02:20;99571.53;;;11.11;100.00
76352;BME280;65179;47.786;19.138;2024-02-26T10:04:47;99573.84;;;11.19;100.00
76352;BME280;65179;47.786;19.138;2024-02-26T10:07:13;99571.97;;;11.36;100.00
76352;BME280;65179;47.786;19.138;2024-02-26T10:09:39;99572.13;;;11.46;100.00
76352;BME280;65179;47.786;19.138;2024-02-26T10:12:07;99575.84;;;11.40;100.00
76352;BME280;65179;47.786;19.138;2024-02-26T10:14:34;99573.22;;;11.45;100.00
76352;BME280;65179;47.786;19.138;2024-02-26T10:16:59;99563.19;;;11.62;100.00
76352;BME280;65179;47.786;19.138;2024-02-26T10:19:28;99563.12;;;11.90;100.00
76352;BME280;65179;47.786;19.138;2024-02-26T10:21:59;99558.78;;;12.28;98.60
76352;BME280;65179;47.786;19.138;2024-02-26T10:24:26;99569.16;;;12.69;97.92
76352;BME280;65179;47.786;19.138;2024-02-26T10:26:52;99570.16;;;13.33;93.59
76352;BME280;65179;47.786;19.138;2024-02-26T10:29:20;99568.19;;;13.28;93.23
76352;BME280;65179;47.786;19.138;2024-02-26T10:31:46;99566.34;;;13.34;93.15
76352;BME280;65179;47.786;19.138;2024-02-26T10:34:12;99566.09;;;13.35;93.42
76352;BME280;65179;47.786;19.138;2024-02-26T10:36:37;99564.28;;;12.98;92.32
76352;BME280;65179;47.786;19.138;2024-02-26T10:39:06;99552.16;;;12.62;94.93
76352;BME280;65179;47.786;19.138;2024-02-26T10:41:33;99558.47;;;12.67;95.22
76352;BME280;65179;47.786;19.138;2024-02-26T10:43:59;99560.06;;;12.63;95.43
76352;BME280;65179;47.786;19.138;2024-02-26T10:46:25;99562.47;;;12.81;94.43
76352;BME280;65179;47.786;19.138;2024-02-26T10:48:51;99552.37;;;13.04;93.31
76352;BME280;65179;47.786;19.138;2024-02-26T10:51:25;99555.66;;;13.27;92.22
76352;BME280;65179;47.786;19.138;2024-02-26T10:53:57;99549.59;;;13.20;90.25
76352;BME280;65179;47.786;19.138;2024-02-26T10:56:33;99547.91;;;13.19;90.51
76352;BME280;65179;47.786;19.138;2024-02-26T10:58:59;99546.22;;;13.13;89.77
76352;BME280;65179;47.786;19.138;2024-02-26T11:01:27;99541.53;;;13.09;90.74
76352;BME280;65179;47.786;19.138;2024-02-26T11:03:55;99537.91;;;13.03;90.53
76352;BME280;65179;47.786;19.138;2024-02-26T11:06:21;99538.41;;;13.00;90.93
76352;BME280;65179;47.786;19.138;2024-02-26T11:08:49;99540.00;;;13.18;90.73
76352;BME280;65179;47.786;19.138;2024-02-26T11:11:16;99546.38;;;13.28;89.87
76352;BME280;65179;47.786;19.138;2024-02-26T11:13:44;99544.91;;;13.42;90.63
76352;BME280;65179;47.786;19.138;2024-02-26T11:16:13;99541.94;;;13.49;90.17
76352;BME280;65179;47.786;19.138;2024-02-26T11:18:39;99531.81;;;13.44;90.34
76352;BME280;65179;47.786;19.138;2024-02-26T11:21:07;99532.25;;;13.31;91.29
76352;BME280;65179;47.786;19.138;2024-02-26T11:23:34;99527.44;;;13.43;89.73
76352;BME280;65179;47.786;19.138;2024-02-26T11:26:04;99536.41;;;13.71;88.61
76352;BME280;65179;47.786;19.138;2024-02-26T11:28:32;99530.38;;;13.68;88.23
76352;BME280;65179;47.786;19.138;2024-02-26T11:30:59;99541.91;;;13.44;89.87
76352;BME280;65179;47.786;19.138;2024-02-26T11:33:26;99534.91;;;13.26;90.93
76352;BME280;65179;47.786;19.138;2024-02-26T11:35:53;99537.13;;;13.29;90.20
76352;BME280;65179;47.786;19.138;2024-02-26T11:38:24;99530.59;;;13.30;90.55
76352;BME280;65179;47.786;19.138;2024-02-26T11:40:51;99530.22;;;13.22;89.73
76352;BME280;65179;47.786;19.138;2024-02-26T11:43:18;99530.56;;;13.25;89.57
76352;BME280;65179;47.786;19.138;2024-02-26T11:45:49;99531.25;;;13.42;89.36
76352;BME280;65179;47.786;19.138;2024-02-26T11:48:21;99529.78;;;13.61;88.53
76352;BME280;65179;47.786;19.138;2024-02-26T11:50:54;99526.50;;;13.64;86.10
76352;BME280;65179;47.786;19.138;2024-02-26T11:55:45;99528.63;;;13.89;85.33
76352;BME280;65179;47.786;19.138;2024-02-26T11:58:10;99525.06;;;13.89;85.21
76352;BME280;65179;47.786;19.138;2024-02-26T12:00:36;99526.16;;;13.88;84.76
76352;BME280;65179;47.786;19.138;2024-02-26T12:03:02;99521.81;;;13.92;85.56
76352;BME280;65179;47.786;19.138;2024-02-26T12:05:31;99521.78;;;13.87;85.05
76352;BME280;65179;47.786;19.138;2024-02-26T12:08:05;99519.03;;;13.87;85.81
76352;BME280;65179;47.786;19.138;2024-02-26T12:10:34;99514.03;;;13.74;86.04
76352;BME280;65179;47.786;19.138;2024-02-26T12:13:09;99509.69;;;13.73;86.15
76352;BME280;65179;47.786;19.138;2024-02-26T12:15:43;99504.22;;;13.73;85.73
76352;BME280;65179;47.786;19.138;2024-02-26T12:18:10;99513.84;;;13.85;86.04
76352;BME280;65179;47.786;19.138;2024-02-26T12:20:39;99509.28;;;13.96;84.55
76352;BME280;65179;47.786;19.138;2024-02-26T12:23:04;99509.78;;;13.88;84.08
76352;BME280;65179;47.786;19.138;2024-02-26T12:25:31;99521.59;;;13.98;85.74
76352;BME280;65179;47.786;19.138;2024-02-26T12:27:57;99516.41;;;13.97;85.50
76352;BME280;65179;47.786;19.138;2024-02-26T12:30:23;99519.03;;;13.82;84.65
76352;BME280;65179;47.786;19.138;2024-02-26T12:32:51;99519.59;;;13.89;85.45
76352;BME280;65179;47.786;19.138;2024-02-26T12:35:17;99520.16;;;13.86;86.05
76352;BME280;65179;47.786;19.138;2024-02-26T12:37:43;99513.84;;;13.85;85.98
76352;BME280;65179;47.786;19.138;2024-02-26T12:40:10;99517.41;;;13.86;85.13
76352;BME280;65179;47.786;19.138;2024-02-26T12:42:36;99513.13;;;13.63;85.43
76352;BME280;65179;47.786;19.138;2024-02-26T12:45:10;99519.47;;;13.68;85.40